Latest Weather Observations for Urandangi

IDQ60801

Issued at 6:05 pm EST Sunday 20 April 2014 (issued every 30 minutes, with the page automatically refreshed every 10 minutes)

About weather observations | Map of weather stations | Latest weather observations for QLD | Other Formats
Station Details ID: 037058 Name: URANDANGI AERODROME Lat: -21.60 Lon: 138.37 Height: 178.6 m
Data from the previous 72 hours. | See also: Recent months at Urandangi
Date/Time
EST
Temp
°C
App
Temp
°C
Dew
Point
Rel
Hum
%
Delta-T
°C
Wind Press
QNH
hPa
Press
MSL
hPa
Rain
since 9 am
mm
Dir
 
Spd
km/h
Gust
km/h
Spd
kts
Gust
kts
20/06:00pm 29.8 24.9 -0.5 14 14.4 SE 15 19 8 10 1014.0 1013.1 0.0
20/05:30pm 30.5 26.3 -1.0 13 15.0 SSE 11 17 6 9 1013.9 - 0.0
20/05:00pm 30.9 25.7 0.3 14 14.9 SSE 17 22 9 12 1013.7 1012.8 0.0
20/04:30pm 31.1 27.0 -0.5 13 15.2 SE 11 19 6 10 1013.5 - 0.0
20/04:00pm 31.7 27.8 1.0 14 15.2 SSE 11 17 6 9 1013.5 1012.6 0.0
20/03:30pm 31.9 27.6 1.1 14 15.3 SSE 13 20 7 11 1013.5 - 0.0
20/03:00pm 32.0 27.0 1.2 14 15.3 S 17 24 9 13 1013.8 1012.9 0.0
20/02:30pm 32.0 26.6 1.2 14 15.3 S 19 24 10 13 1014.0 - 0.0
20/02:00pm 31.3 25.4 1.6 15 14.8 S 22 30 12 16 1014.3 1013.4 0.0
20/01:30pm 31.2 26.0 2.4 16 14.6 SE 19 28 10 15 1014.9 - 0.0
20/01:00pm 30.8 25.5 3.0 17 14.1 SE 20 33 11 18 1015.5 1014.6 0.0
20/12:30pm 29.8 23.9 3.7 19 13.4 SE 24 33 13 18 1016.0 - 0.0
20/12:00pm 29.6 23.8 4.3 20 13.1 SE 24 35 13 19 1016.5 1015.7 0.0
20/11:30am 29.1 23.3 4.6 21 12.7 SE 24 37 13 20 1017.0 - 0.0
20/11:00am 27.9 21.7 4.2 22 12.1 ESE 26 37 14 20 1017.4 1016.6 0.0
20/10:30am 27.1 20.2 4.8 24 11.5 ESE 30 41 16 22 1017.7 - 0.0
20/10:00am 26.1 19.8 5.7 27 10.6 ESE 28 37 15 20 1017.9 1017.0 0.0
20/09:30am 24.1 18.0 5.0 29 9.7 ESE 26 35 14 19 1017.9 - 0.0
20/09:00am 21.9 16.9 4.5 32 8.6 ESE 20 26 11 14 1017.7 1016.9 0.0
20/08:30am 19.3 15.4 3.5 35 7.5 SE 13 19 7 10 1017.5 - 0.0
20/08:00am 16.9 13.3 2.9 39 6.4 SE 11 17 6 9 1017.0 1016.2 0.0
20/07:30am 13.1 10.1 1.8 46 4.9 SE 7 9 4 5 1016.6 - 0.0
20/07:00am 12.3 9.3 1.9 49 4.5 SE 7 7 4 4 1016.3 1015.5 0.0
20/06:30am 12.6 9.2 1.6 47 4.8 SE 9 9 5 5 1015.9 - 0.0
20/06:00am 13.6 10.2 1.9 45 5.1 SE 9 11 5 6 1015.6 1014.7 0.0
20/05:30am 14.1 10.3 1.7 43 5.4 SE 11 13 6 7 1015.4 - 0.0
20/05:00am 13.6 10.2 1.6 44 5.2 SE 9 11 5 6 1015.2 1014.3 0.0
20/04:30am 13.3 9.7 0.7 42 5.4 SE 9 11 5 6 1015.0 - 0.0
20/04:00am 13.8 10.2 0.5 40 5.7 SE 9 9 5 5 1014.9 1014.0 0.0
20/03:30am 14.3 10.6 0.2 38 6.0 SE 9 11 5 6 1014.9 - 0.0
20/03:00am 14.4 11.1 0.3 38 6.0 SE 7 9 4 5 1014.9 1014.0 0.0
20/02:30am 15.1 11.1 0.2 36 6.4 SE 11 13 6 7 1014.9 - 0.0
20/02:00am 15.3 11.5 -0.4 34 6.7 SE 9 11 5 6 1015.2 1014.3 0.0
20/01:30am 15.8 11.7 -0.4 33 6.9 SE 11 11 6 6 1015.5 - 0.0
20/01:00am 16.4 12.5 -1.2 30 7.4 SE 9 9 5 5 1015.5 1014.6 0.0
20/12:30am 16.8 12.9 -1.3 29 7.6 SE 9 9 5 5 1015.6 - 0.0
20/12:00am 18.0 14.1 -1.8 26 8.3 SE 9 11 5 6 1015.7 1014.8 0.0
 
Date/Time
EST
Temp
°C
App
Temp
°C
Dew
Point
Rel
Hum
%
Delta-T
°C
Wind Press
QNH
hPa
Press
MSL
hPa
Rain
since 9 am
mm
Dir
 
Spd
km/h
Gust
km/h
Spd
kts
Gust
kts
19/11:30pm 21.2 16.6 -0.7 23 9.7 SE 13 17 7 9 1015.9 - 0.0
19/11:00pm 20.9 16.4 -0.4 24 9.5 SSE 13 17 7 9 1016.0 1015.1 0.0
19/10:30pm 20.1 15.9 -1.1 24 9.3 SSE 11 13 6 7 1016.1 - 0.0
19/10:00pm 21.2 16.9 -1.3 22 9.9 SSE 11 13 6 7 1016.1 1015.3 0.0
19/09:30pm 21.7 17.4 -1.6 21 10.2 SSE 11 13 6 7 1016.0 - 0.0
19/09:00pm 21.1 16.8 -1.4 22 9.8 SSE 11 15 6 8 1015.6 1014.7 0.0
19/08:30pm 21.6 17.3 -1.6 21 10.2 S 11 13 6 7 1015.3 - 0.0
19/08:00pm 22.4 18.0 -2.3 19 10.7 S 11 13 6 7 1014.9 1014.0 0.0
19/07:30pm 23.7 19.4 -2.0 18 11.4 SSE 11 13 6 7 1014.7 - 0.0
19/07:00pm 25.0 20.6 -2.5 16 12.2 SSE 11 15 6 8 1014.4 1013.5 0.0
19/06:30pm 28.5 23.6 -3.6 12 14.3 SSE 13 20 7 11 1014.0 - 0.0
19/06:00pm 30.4 24.2 -4.6 10 15.6 SE 19 30 10 16 1013.7 1012.8 0.0
19/05:30pm 31.5 26.2 -3.8 10 16.1 SSE 15 24 8 13 1013.4 - 0.0
19/05:00pm 31.6 25.8 -5.1 9 16.4 SE 17 28 9 15 1013.3 1012.4 0.0
19/04:30pm 32.4 26.2 -4.5 9 16.7 SE 19 30 10 16 1013.4 - 0.0
19/04:00pm 32.0 26.2 -4.8 9 16.6 SSE 17 28 9 15 1013.3 1012.4 0.0
19/03:30pm 32.4 26.6 -4.5 9 16.7 ESE 17 24 9 13 1013.5 - 0.0
19/03:00pm 32.6 27.2 -4.3 9 16.8 SE 15 24 8 13 1013.6 1012.7 0.0
19/02:30pm 32.9 27.3 -2.7 10 16.7 ESE 17 24 9 13 1013.9 - 0.0
19/02:00pm 32.1 26.1 -3.3 10 16.3 SSE 19 26 10 14 1014.2 1013.3 0.0
19/01:30pm 32.0 26.1 -2.1 11 16.1 SE 19 28 10 15 1014.7 - 0.0
19/01:00pm 31.3 26.1 -2.6 11 15.7 SE 15 24 8 13 1015.3 1014.4 0.0
19/12:30pm 31.4 26.0 -1.4 12 15.6 SSE 17 22 9 12 1016.0 - 0.0
19/12:00pm 30.5 24.6 -2.1 12 15.2 ESE 19 26 10 14 1016.6 1015.8 0.0
19/11:30am 30.0 24.0 -1.4 13 14.8 E 20 32 11 17 1017.2 - 0.0
19/11:00am 29.0 23.3 0.7 16 13.7 ESE 20 30 11 16 1017.6 1016.8 0.0
19/10:30am 27.8 21.6 -0.3 16 13.2 ESE 22 32 12 17 1017.9 - 0.0
19/10:00am 26.2 21.0 0.0 18 12.2 ESE 17 24 9 13 1018.1 1017.2 0.0
19/09:30am 23.8 18.6 0.2 21 10.9 SE 17 20 9 11 1018.1 - 0.0
19/09:00am 21.1 15.9 -0.2 24 9.5 SE 17 20 9 11 1018.1 1017.2 0.0
19/08:30am 19.4 14.5 -0.6 26 8.8 SE 15 19 8 10 1017.9 - 0.0
19/08:00am 17.1 13.3 -1.1 29 7.7 SE 9 13 5 7 1017.7 1016.9 0.0
19/07:30am 12.2 8.5 -2.8 35 5.8 SE 7 9 4 5 1017.5 - 0.0
19/07:00am 11.9 8.4 -2.7 36 5.7 SE 6 7 3 4 1017.4 1016.6 0.0
19/06:30am 12.5 8.5 -2.5 35 5.9 SE 9 11 5 6 1017.3 - 0.0
19/06:00am 13.5 9.9 -2.4 33 6.3 SE 7 9 4 5 1017.1 1016.3 0.0
19/05:30am 14.0 9.7 -2.0 33 6.5 SSE 11 13 6 7 1016.8 - 0.0
19/05:00am 13.2 8.8 -2.3 34 6.2 SSE 11 11 6 6 1016.7 1015.9 0.0
19/04:30am 14.1 10.5 -1.9 33 6.5 SE 7 9 4 5 1016.7 - 0.0
19/04:00am 15.1 10.8 -1.9 31 7.0 SE 11 15 6 8 1016.6 1015.8 0.0
19/03:30am 15.7 11.6 -2.7 28 7.5 SE 9 11 5 6 1016.6 - 0.0
19/03:00am 17.9 12.8 -1.9 26 8.3 SE 15 19 8 10 1016.6 1015.8 0.0
19/02:30am 17.8 13.1 -1.9 26 8.3 SE 13 19 7 10 1016.8 - 0.0
19/02:00am 17.6 12.4 -2.6 25 8.3 SE 15 19 8 10 1017.2 1016.4 0.0
19/01:30am 15.1 10.7 -2.3 30 7.1 SE 11 17 6 9 1017.5 - 0.0
19/01:00am 14.3 9.8 -3.5 29 7.0 SE 11 11 6 6 1017.6 1016.8 0.0
19/12:30am 15.7 11.6 -2.7 28 7.5 SSE 9 9 5 5 1017.9 - 0.0
19/12:00am 16.8 13.1 -3.3 25 8.1 SSE 7 9 4 5 1018.0 1017.1 0.0
 
Date/Time
EST
Temp
°C
App
Temp
°C
Dew
Point
Rel
Hum
%
Delta-T
°C
Wind Press
QNH
hPa
Press
MSL
hPa
Rain
since 9 am
mm
Dir
 
Spd
km/h
Gust
km/h
Spd
kts
Gust
kts
18/11:30pm 18.7 14.6 -2.8 23 8.9 SSE 9 11 5 6 1018.0 - 0.0
18/11:00pm 20.7 16.3 -2.4 21 9.9 SSE 11 13 6 7 1018.0 1017.1 0.0
18/10:30pm 22.8 18.0 -2.7 18 11.0 SSE 13 17 7 9 1017.7 - 0.0
18/10:00pm 23.6 18.4 -2.8 17 11.5 SSE 15 17 8 9 1017.6 1016.8 0.0
18/09:30pm 23.8 18.7 -1.9 18 11.4 SSE 15 17 8 9 1017.7 - 0.0
18/09:00pm 23.8 18.7 -1.9 18 11.4 SSE 15 17 8 9 1017.5 1016.7 0.0
18/08:30pm 23.0 18.3 -1.8 19 10.9 SSE 13 15 7 8 1017.4 - 0.0
18/08:00pm 23.9 19.1 -2.6 17 11.6 SSE 13 15 7 8 1017.1 1016.3 0.0
18/07:30pm 25.1 20.6 -3.3 15 12.4 SSE 11 13 6 7 1016.7 - 0.0
18/07:00pm 27.4 22.5 -3.4 13 13.7 SSE 13 19 7 10 1016.3 1015.5 0.0
18/06:30pm 28.7 22.9 -4.6 11 14.6 SE 17 28 9 15 1015.8 - 0.0
18/06:00pm 30.4 23.7 -4.6 10 15.6 SSE 22 33 12 18 1015.3 1014.4 0.0
18/05:30pm 31.1 23.9 -5.5 9 16.2 SE 24 33 13 18 1015.1 - 0.0
18/05:00pm 31.7 25.3 -5.0 9 16.4 SE 20 28 11 15 1015.0 1014.1 0.0
18/04:30pm 32.0 25.2 -4.8 9 16.6 SSE 22 33 12 18 1014.9 - 0.0
18/04:00pm 32.2 25.5 -4.6 9 16.6 SSE 22 32 12 17 1014.9 1014.0 0.0
18/03:30pm 32.4 25.3 -4.5 9 16.7 SE 24 32 13 17 1014.8 - 0.0
18/03:00pm 32.5 26.2 -4.4 9 16.8 SE 20 33 11 18 1015.0 1014.1 0.0
18/02:30pm 32.9 26.9 -2.7 10 16.7 SSE 19 28 10 15 1015.0 - 0.0
18/02:00pm 32.2 26.3 -2.0 11 16.1 SE 19 28 10 15 1015.3 1014.4 0.0
18/01:30pm 31.9 26.4 -2.2 11 16.0 SE 17 28 9 15 1015.7 - 0.0
18/01:00pm 32.3 27.0 -0.7 12 15.9 SE 17 28 9 15 1016.4 1015.6 0.0
18/12:30pm 31.5 25.7 -1.3 12 15.6 SE 19 22 10 12 1016.9 - 0.0
18/12:00pm 30.8 24.4 -1.9 12 15.3 SE 22 33 12 18 1017.2 1016.4 0.0
18/11:30am 30.1 23.8 -1.3 13 14.8 SE 22 32 12 17 1017.5 - 0.0
18/11:00am 29.1 22.9 -0.1 15 13.9 SE 22 32 12 17 1017.7 1016.9 0.0
18/10:30am 28.1 21.9 -0.1 16 13.4 ESE 22 32 12 17 1017.9 - 0.0
18/10:00am 26.5 20.8 -0.5 17 12.5 ESE 19 30 10 16 1018.1 1017.2 0.0
18/09:30am 24.6 18.9 -0.5 19 11.5 SE 19 24 10 13 1018.1 - 0.0
18/09:00am 22.1 16.4 -0.6 22 10.2 SSE 19 24 10 13 1017.7 1016.9 0.0
18/08:30am 20.4 15.5 -0.3 25 9.2 SE 15 20 8 11 1017.7 - 0.0
18/08:00am 18.3 14.2 0.0 29 8.0 SSE 11 15 6 8 1017.6 1016.8 0.0
18/07:30am 15.9 12.2 0.1 34 6.8 SSE 9 11 5 6 1017.4 - 0.0
18/07:00am 14.1 9.7 0.4 39 5.8 S 13 13 7 7 1017.3 1016.5 0.0
18/06:30am 14.6 10.9 0.1 37 6.2 SSE 9 9 5 5 1017.2 - 0.0
18/06:00am 15.3 11.7 0.3 36 6.4 SSE 9 11 5 6 1017.0 1016.2 0.0
18/05:30am 15.4 11.8 0.4 36 6.5 SSE 9 11 5 6 1016.8 - 0.0
18/05:00am 15.5 11.8 0.1 35 6.6 SSE 9 13 5 7 1016.7 1015.9 0.0
18/04:30am 15.7 12.1 0.3 35 6.7 SSE 9 11 5 6 1016.5 - 0.0
18/04:00am 16.4 12.7 0.1 33 7.0 SSE 9 11 5 6 1016.4 1015.6 0.0
18/03:30am 17.8 13.7 0.0 30 7.8 SE 11 11 6 6 1016.5 - 0.0
18/03:00am 19.3 15.2 -0.1 27 8.6 SE 11 13 6 7 1016.6 1015.8 0.0
18/02:30am 20.3 16.3 0.2 26 9.0 SSE 11 15 6 8 1016.8 - 0.0
18/02:00am 21.4 16.9 0.0 24 9.6 SSE 13 19 7 10 1016.9 1016.1 0.0
18/01:30am 21.0 16.7 0.8 26 9.2 SSE 13 17 7 9 1017.1 - 0.0
18/01:00am 20.9 16.9 0.2 25 9.3 SSE 11 13 6 7 1017.3 1016.5 0.0
18/12:30am 22.0 17.2 0.5 24 9.8 SSE 15 19 8 10 1017.3 - 0.0
18/12:00am 22.8 18.0 0.0 22 10.4 SSE 15 19 8 10 1017.4 1016.6 0.0
 
Date/Time
EST
Temp
°C
App
Temp
°C
Dew
Point
Rel
Hum
%
Delta-T
°C
Wind Press
QNH
hPa
Press
MSL
hPa
Rain
since 9 am
mm
Dir
 
Spd
km/h
Gust
km/h
Spd
kts
Gust
kts
17/11:30pm 23.6 18.8 0.0 21 10.8 S 15 22 8 12 1017.5 - 0.0
17/11:00pm 23.9 18.7 0.3 21 10.9 S 17 20 9 11 1017.5 1016.7 0.0
17/10:30pm 24.6 19.4 0.2 20 11.3 S 17 22 9 12 1017.7 - 0.0
17/10:00pm 24.9 19.7 0.4 20 11.4 S 17 22 9 12 1017.6 1016.8 0.0
17/09:30pm 25.0 20.3 1.2 21 11.3 SSE 15 20 8 11 1017.4 - 0.0
17/09:00pm 25.7 21.1 1.8 21 11.5 S 15 19 8 10 1017.2 1016.4 0.0
17/08:30pm 26.3 22.3 2.9 22 11.6 S 13 20 7 11 1016.9 - 0.0
17/08:00pm 25.8 22.5 4.3 25 10.8 S 11 13 6 7 1016.5 1015.7 0.0
17/07:30pm 26.9 23.1 4.0 23 11.6 S 13 15 7 8 1015.9 - 0.0
17/07:00pm 28.3 24.6 4.6 22 12.2 S 13 17 7 9 1015.4 1014.5 0.0
17/06:30pm 29.9 25.5 4.5 20 13.2 SSE 17 22 9 12 1015.0 - 0.0

Other Formats:

Comma delimited format used in spreadsheet applications
http://www.bom.gov.au/fwo/IDQ60801/IDQ60801.94344.axf

JavaScript Object Notation format (JSON) in row-major order
http://www.bom.gov.au/fwo/IDQ60801/IDQ60801.94344.json